createdAt,value
2023-04-15T00:00:13.430Z,17.1
2023-04-15T00:01:19.554Z,17.1
2023-04-15T00:02:25.659Z,17.1
2023-04-15T00:03:31.799Z,17.1
2023-04-15T00:04:37.862Z,17.1
2023-04-15T00:05:43.980Z,17.1
2023-04-15T00:06:50.096Z,17.1
2023-04-15T00:07:56.215Z,17.1
2023-04-15T00:09:01.393Z,17.1
2023-04-15T00:10:07.481Z,17.1
2023-04-15T00:11:13.593Z,17.1
2023-04-15T00:12:19.696Z,17.1
2023-04-15T00:13:25.870Z,17.1
2023-04-15T00:14:31.909Z,17.1
2023-04-15T00:15:38.022Z,17.1
2023-04-15T00:16:43.165Z,17.1
2023-04-15T00:17:48.309Z,17.1
2023-04-15T00:18:53.423Z,17.1
2023-04-15T00:19:58.562Z,17.1
2023-04-15T00:21:03.745Z,17.1
2023-04-15T00:22:08.815Z,17.1
2023-04-15T00:23:14.946Z,17.1
2023-04-15T00:24:21.080Z,17.1
2023-04-15T00:25:27.179Z,17.1
2023-04-15T00:26:33.281Z,17.1
2023-04-15T00:27:39.378Z,17.1
2023-04-15T00:28:45.493Z,17.1
2023-04-15T00:29:51.612Z,17.1
2023-04-15T00:30:57.734Z,17.1
2023-04-15T00:32:03.847Z,17.1
2023-04-15T00:33:10.022Z,17.1
2023-04-15T00:34:16.068Z,17.1
2023-04-15T00:35:22.180Z,17.1
2023-04-15T00:36:27.306Z,17.1
2023-04-15T00:37:33.431Z,17.1
2023-04-15T00:38:39.544Z,17.1
2023-04-15T00:40:51.781Z,17.1
2023-04-15T00:41:57.929Z,17.1
2023-04-15T00:43:04.014Z,17.1
2023-04-15T00:44:10.104Z,17.1
2023-04-15T00:45:15.263Z,17.1
2023-04-15T00:46:20.374Z,17.1
2023-04-15T00:47:25.518Z,17.1
2023-04-15T00:49:36.768Z,17.1
2023-04-15T00:50:42.882Z,17.1
2023-04-15T00:51:48.994Z,17.1
2023-04-15T00:52:54.116Z,17.1
2023-04-15T00:54:00.235Z,17.1
2023-04-15T00:55:06.342Z,17.1
2023-04-15T00:56:12.450Z,17.1
2023-04-15T00:57:18.575Z,17.1
2023-04-15T00:58:24.685Z,17.1
2023-04-15T00:59:30.800Z,17.1
2023-04-15T01:00:36.908Z,17.1
2023-04-15T01:01:43.025Z,17.1
2023-04-15T01:02:49.158Z,17.1
2023-04-15T01:03:55.252Z,17.1
2023-04-15T01:05:01.377Z,17.1
2023-04-15T01:06:07.486Z,17.1
2023-04-15T01:07:12.640Z,17.1
2023-04-15T01:08:18.725Z,17.1
2023-04-15T01:09:24.857Z,17.1
2023-04-15T01:10:31.006Z,17.1
2023-04-15T01:11:36.138Z,17.1
2023-04-15T01:12:41.222Z,17.1
2023-04-15T01:13:46.358Z,17.1
2023-04-15T01:14:51.487Z,17.1
2023-04-15T01:15:57.593Z,17.1
2023-04-15T01:17:03.708Z,17.1
2023-04-15T01:18:09.821Z,17.1
2023-04-15T01:19:15.937Z,17.1
2023-04-15T01:20:22.056Z,17.1
2023-04-15T01:21:28.203Z,17.1
2023-04-15T01:22:34.340Z,17.1
2023-04-15T01:23:40.413Z,17.1
2023-04-15T01:24:46.534Z,17.1
2023-04-15T01:25:52.618Z,17.1
2023-04-15T01:26:58.738Z,17.1
2023-04-15T01:28:04.865Z,17.1
2023-04-15T01:29:09.973Z,17.1
2023-04-15T01:30:16.089Z,17.1
2023-04-15T01:31:22.208Z,17.1
2023-04-15T01:32:28.360Z,17.1
2023-04-15T01:33:34.430Z,17.1
2023-04-15T01:34:40.574Z,17.1
2023-04-15T01:35:46.666Z,17.1
2023-04-15T01:36:51.804Z,17.1
2023-04-15T01:37:56.941Z,17.1
2023-04-15T01:39:02.085Z,17.1
2023-04-15T01:40:07.190Z,17.1
2023-04-15T01:41:13.313Z,17.1
2023-04-15T01:42:19.420Z,17.1
2023-04-15T01:43:25.534Z,17.1
2023-04-15T01:44:31.648Z,17.1
2023-04-15T01:45:37.765Z,17.1
2023-04-15T01:46:43.871Z,17.1
2023-04-15T01:47:49.997Z,17.1
2023-04-15T01:48:56.123Z,17.1
2023-04-15T01:50:02.224Z,17.1
2023-04-15T01:51:08.332Z,17.1
2023-04-15T01:52:14.450Z,17.1
2023-04-15T01:53:20.585Z,17.1
2023-04-15T01:54:25.687Z,17.1
2023-04-15T01:55:31.821Z,17.1
2023-04-15T01:56:37.918Z,17.1
2023-04-15T01:57:44.036Z,17
2023-04-15T01:58:50.146Z,17.1
2023-04-15T01:59:56.265Z,17
2023-04-15T02:01:02.382Z,17.1
2023-04-15T02:02:07.513Z,17.1
2023-04-15T02:03:12.655Z,17
2023-04-15T02:04:17.771Z,17
2023-04-15T02:05:22.908Z,17
2023-04-15T02:06:29.024Z,17.1
2023-04-15T02:07:35.169Z,17.1
2023-04-15T02:08:41.255Z,17.1
2023-04-15T02:09:47.360Z,17.1
2023-04-15T02:10:53.473Z,17.1
2023-04-15T02:11:59.588Z,17.1
2023-04-15T02:13:05.706Z,17.1
2023-04-15T02:14:11.818Z,17.2
2023-04-15T02:15:17.929Z,17.2
2023-04-15T02:16:24.048Z,17.3
2023-04-15T02:17:30.163Z,17.3
2023-04-15T02:18:36.300Z,17.4
2023-04-15T02:19:41.403Z,17.4
2023-04-15T02:20:47.527Z,17.5
2023-04-15T02:21:53.634Z,17.5
2023-04-15T02:22:59.752Z,17.6
2023-04-15T02:24:05.858Z,17.6
2023-04-15T02:25:11.974Z,17.6
2023-04-15T02:26:18.089Z,17.7
2023-04-15T02:27:23.222Z,17.7
2023-04-15T02:28:28.378Z,17.7
2023-04-15T02:29:33.488Z,17.7
2023-04-15T02:31:44.731Z,17.8
2023-04-15T02:32:50.845Z,17.8
2023-04-15T02:33:57.020Z,17.8
2023-04-15T02:35:03.075Z,17.8
2023-04-15T02:36:09.184Z,17.8
2023-04-15T02:37:15.318Z,17.8
2023-04-15T02:38:21.419Z,17.8
2023-04-15T02:39:27.522Z,17.8
2023-04-15T02:40:33.639Z,17.8
2023-04-15T02:41:39.800Z,17.8
2023-04-15T02:42:45.940Z,17.8
2023-04-15T02:43:51.978Z,17.8
2023-04-15T02:44:57.121Z,17.8
2023-04-15T02:46:03.233Z,17.8
2023-04-15T02:47:09.352Z,17.9
2023-04-15T02:48:15.459Z,17.8
2023-04-15T02:49:21.577Z,17.8
2023-04-15T02:50:27.678Z,17.8
2023-04-15T02:51:33.802Z,17.8
2023-04-15T02:52:39.915Z,17.8
2023-04-15T02:53:45.053Z,17.8
2023-04-15T02:54:50.175Z,17.8
2023-04-15T02:55:55.305Z,17.8
2023-04-15T02:57:00.443Z,17.8
2023-04-15T02:58:06.549Z,17.8
2023-04-15T02:59:12.719Z,17.8
2023-04-15T03:00:18.781Z,17.8
2023-04-15T03:01:24.913Z,17.8
2023-04-15T03:02:31.006Z,17.8
2023-04-15T03:03:37.121Z,17.8
2023-04-15T03:04:43.243Z,17.8
2023-04-15T03:05:49.346Z,17.8
2023-04-15T03:06:55.477Z,17.8
2023-04-15T03:08:01.583Z,17.8
2023-04-15T03:09:07.687Z,17.8
2023-04-15T03:10:13.815Z,17.8
2023-04-15T03:11:18.932Z,17.8
2023-04-15T03:12:25.049Z,17.8
2023-04-15T03:13:31.178Z,17.8
2023-04-15T03:14:37.285Z,17.8
2023-04-15T03:15:43.392Z,17.8
2023-04-15T03:16:49.504Z,17.8
2023-04-15T03:17:55.624Z,17.8
2023-04-15T03:19:00.856Z,17.8
2023-04-15T03:20:06.863Z,17.8
2023-04-15T03:21:11.988Z,17.8
2023-04-15T03:22:18.116Z,17.8
2023-04-15T03:23:23.249Z,17.8
2023-04-15T03:24:28.394Z,17.8
2023-04-15T03:25:34.487Z,17.8
2023-04-15T03:26:40.661Z,17.7
2023-04-15T03:27:46.711Z,17.7
2023-04-15T03:28:52.825Z,17.7
2023-04-15T03:29:58.947Z,17.7
2023-04-15T03:31:05.058Z,17.7
2023-04-15T03:32:11.175Z,17.7
2023-04-15T03:33:17.296Z,17.7
2023-04-15T03:34:23.399Z,17.7
2023-04-15T03:35:29.519Z,17.7
2023-04-15T03:36:35.625Z,17.7
2023-04-15T03:37:41.740Z,17.7
2023-04-15T03:38:46.863Z,17.7
2023-04-15T03:39:52.980Z,17.7
2023-04-15T03:40:59.100Z,17.7
2023-04-15T03:42:05.219Z,17.7
2023-04-15T03:43:11.316Z,17.7
2023-04-15T03:44:17.457Z,17.7
2023-04-15T03:45:23.553Z,17.7
2023-04-15T03:46:28.679Z,17.7
2023-04-15T03:47:33.820Z,17.7
2023-04-15T03:48:38.951Z,17.7
2023-04-15T03:49:44.079Z,17.6
2023-04-15T03:50:50.241Z,17.7
2023-04-15T03:51:56.310Z,17.7
2023-04-15T03:53:02.429Z,17.7
2023-04-15T03:54:08.554Z,17.6
2023-04-15T03:55:14.660Z,17.6
2023-04-15T03:56:20.775Z,17.6
2023-04-15T03:57:26.884Z,17.6
2023-04-15T03:58:32.987Z,17.6
2023-04-15T03:59:39.114Z,17.6
2023-04-15T04:00:45.219Z,17.6
2023-04-15T04:01:51.328Z,17.6
2023-04-15T04:02:57.459Z,17.6
2023-04-15T04:04:02.588Z,17.6
2023-04-15T04:05:08.695Z,17.6
2023-04-15T04:06:14.808Z,17.6
2023-04-15T04:07:20.917Z,17.6
2023-04-15T04:08:27.031Z,17.6
2023-04-15T04:09:33.141Z,17.6
2023-04-15T04:10:39.254Z,17.6
2023-04-15T04:11:44.413Z,17.6
2023-04-15T04:12:49.525Z,17.6
2023-04-15T04:13:55.647Z,17.6
2023-04-15T04:15:01.758Z,17.6
2023-04-15T04:16:07.860Z,17.6
2023-04-15T04:17:13.972Z,17.6
2023-04-15T04:18:20.091Z,17.6
2023-04-15T04:19:26.203Z,17.6
2023-04-15T04:20:32.327Z,17.6
2023-04-15T04:21:38.443Z,17.6
2023-04-15T04:22:44.554Z,17.6
2023-04-15T04:23:50.659Z,17.6
2023-04-15T04:24:56.784Z,17.6
2023-04-15T04:26:02.889Z,17.6
2023-04-15T04:27:08.016Z,17.6
2023-04-15T04:28:14.139Z,17.6
2023-04-15T04:29:20.258Z,17.6
2023-04-15T04:30:26.366Z,17.5
2023-04-15T04:31:32.477Z,17.5
2023-04-15T04:32:38.605Z,17.6
2023-04-15T04:33:43.725Z,17.5
2023-04-15T04:34:48.858Z,17.5
2023-04-15T04:35:53.994Z,17.5
2023-04-15T04:36:59.120Z,17.5
2023-04-15T04:38:04.289Z,17.5
2023-04-15T04:39:10.373Z,17.5
2023-04-15T04:40:15.508Z,17.5
2023-04-15T04:41:20.641Z,17.5
2023-04-15T04:42:26.743Z,17.5
2023-04-15T04:43:32.860Z,17.5
2023-04-15T04:44:38.997Z,17.5
2023-04-15T04:45:45.089Z,17.5
2023-04-15T04:46:51.197Z,17.5
2023-04-15T04:47:57.308Z,17.5
2023-04-15T04:49:03.435Z,17.5
2023-04-15T04:50:09.544Z,17.5
2023-04-15T04:51:15.666Z,17.5
2023-04-15T04:52:21.773Z,17.5
2023-04-15T04:53:27.878Z,17.5
2023-04-15T04:54:33.994Z,17.5
2023-04-15T04:55:39.183Z,17.5
2023-04-15T04:56:45.239Z,17.5
2023-04-15T04:57:51.354Z,17.5
2023-04-15T04:58:57.509Z,17.5
2023-04-15T05:00:03.574Z,17.5
2023-04-15T05:01:09.694Z,17.5
2023-04-15T05:02:15.808Z,17.5
2023-04-15T05:03:20.992Z,17.4
2023-04-15T05:04:26.076Z,17.5
2023-04-15T05:05:32.186Z,17.5
2023-04-15T05:06:38.302Z,17.4
2023-04-15T05:07:44.418Z,17.5
2023-04-15T05:08:50.585Z,17.5
2023-04-15T05:09:56.657Z,17.4
2023-04-15T05:11:02.768Z,17.4
2023-04-15T05:12:08.870Z,17.4
2023-04-15T05:13:14.985Z,17.4
2023-04-15T05:14:21.107Z,17.4
2023-04-15T05:15:27.210Z,17.4
2023-04-15T05:16:33.324Z,17.4
2023-04-15T05:18:45.554Z,17.4
2023-04-15T05:19:50.685Z,17.4
2023-04-15T05:20:56.813Z,17.4
2023-04-15T05:22:02.927Z,17.4
2023-04-15T05:23:09.031Z,17.4
2023-04-15T05:24:15.205Z,17.4
2023-04-15T05:25:21.257Z,17.4
2023-04-15T05:26:27.363Z,17.4
2023-04-15T05:27:32.529Z,17.4
2023-04-15T05:28:37.638Z,17.4
2023-04-15T05:29:42.800Z,17.4
2023-04-15T05:30:47.899Z,17.4
2023-04-15T05:31:53.138Z,17.4
2023-04-15T05:32:58.250Z,17.4
2023-04-15T05:34:04.292Z,17.4
2023-04-15T05:35:10.459Z,17.4
2023-04-15T05:36:16.502Z,17.4
2023-04-15T05:37:22.669Z,17.4
2023-04-15T05:38:28.742Z,17.4
2023-04-15T05:39:34.849Z,17.4
2023-04-15T05:40:40.962Z,17.4
2023-04-15T05:41:47.065Z,17.4
2023-04-15T05:42:53.206Z,17.4
2023-04-15T05:43:59.307Z,17.4
2023-04-15T05:45:05.416Z,17.4
2023-04-15T05:46:11.530Z,17.4
2023-04-15T05:47:16.666Z,17.4
2023-04-15T05:48:22.779Z,17.4
2023-04-15T05:49:28.890Z,17.4
2023-04-15T05:50:34.999Z,17.4
2023-04-15T05:51:41.115Z,17.4
2023-04-15T05:52:47.233Z,17.4
2023-04-15T05:53:53.339Z,17.4
2023-04-15T05:54:58.472Z,17.4
2023-04-15T05:56:03.618Z,17.4
2023-04-15T05:57:08.746Z,17.4
2023-04-15T05:58:13.890Z,17.4
2023-04-15T05:59:19.981Z,17.4
2023-04-15T06:00:26.114Z,17.3
2023-04-15T06:01:32.293Z,17.3
2023-04-15T06:02:38.474Z,17.4
2023-04-15T06:03:44.441Z,17.4
2023-04-15T06:04:50.555Z,17.3
2023-04-15T06:05:56.688Z,17.3
2023-04-15T06:07:02.828Z,17.3
2023-04-15T06:08:08.921Z,17.3
2023-04-15T06:09:15.013Z,17.3
2023-04-15T06:10:21.127Z,17.3
2023-04-15T06:11:27.239Z,17.3
2023-04-15T06:12:32.367Z,17.3
2023-04-15T06:13:38.531Z,17.3
2023-04-15T06:14:44.594Z,17.3
2023-04-15T06:15:50.703Z,17.3
2023-04-15T06:16:56.856Z,17.3
2023-04-15T06:18:02.971Z,17.3
2023-04-15T06:19:09.073Z,17.3
2023-04-15T06:20:14.237Z,17.3
2023-04-15T06:21:19.431Z,17.3
2023-04-15T06:22:24.504Z,17.3
2023-04-15T06:23:29.603Z,17.3
2023-04-15T06:24:35.758Z,17.3
2023-04-15T06:25:41.809Z,17.3
2023-04-15T06:26:47.930Z,17.3
2023-04-15T06:27:54.050Z,17.3
2023-04-15T06:29:00.180Z,17.3
2023-04-15T06:30:06.277Z,17.3
2023-04-15T06:31:12.501Z,17.3
2023-04-15T06:32:18.488Z,17.3
2023-04-15T06:33:24.609Z,17.3
2023-04-15T06:34:30.728Z,17.3
2023-04-15T06:35:36.863Z,17.3
2023-04-15T06:36:42.959Z,17.3
2023-04-15T06:37:48.078Z,17.3
2023-04-15T06:38:54.182Z,17.3
2023-04-15T06:40:00.332Z,17.3
2023-04-15T06:41:06.429Z,17.3
2023-04-15T06:42:12.527Z,17.3
2023-04-15T06:43:18.666Z,17.3
2023-04-15T06:44:24.832Z,17.3
2023-04-15T06:45:29.925Z,17.3
2023-04-15T06:46:35.035Z,17.3
2023-04-15T06:47:40.220Z,17.3
2023-04-15T06:48:45.306Z,17.2
2023-04-15T06:49:51.427Z,17.3
2023-04-15T06:50:57.514Z,17.2
2023-04-15T06:52:03.682Z,17.2
2023-04-15T06:53:09.760Z,17.2
2023-04-15T06:54:15.873Z,17.2
2023-04-15T06:55:21.992Z,17.2
2023-04-15T06:56:28.109Z,17.2
2023-04-15T06:57:34.194Z,17.2
2023-04-15T06:58:40.305Z,17.2
2023-04-15T06:59:46.422Z,17.2
2023-04-15T07:00:52.540Z,17.2
2023-04-15T07:01:58.672Z,17.2
2023-04-15T07:03:03.889Z,17.2
2023-04-15T07:04:09.951Z,17.2
2023-04-15T07:05:16.068Z,17.2
2023-04-15T07:06:22.186Z,17.2
2023-04-15T07:07:28.303Z,17.2
2023-04-15T07:08:34.503Z,17.2
2023-04-15T07:09:40.566Z,17.2
2023-04-15T07:10:45.594Z,17.2
2023-04-15T07:11:50.795Z,17.2
2023-04-15T07:12:56.943Z,17.2
2023-04-15T07:14:03.032Z,17.2
2023-04-15T07:15:09.303Z,17.2
2023-04-15T07:16:15.187Z,17.2
2023-04-15T07:17:21.427Z,17.2
2023-04-15T07:18:27.558Z,17.2
2023-04-15T07:19:33.689Z,17.2
2023-04-15T07:20:39.751Z,17.2
2023-04-15T07:21:45.775Z,17.2
2023-04-15T07:22:51.875Z,17.2
2023-04-15T07:23:58.197Z,17.2
2023-04-15T07:25:04.242Z,17.2
2023-04-15T07:26:09.302Z,17.2
2023-04-15T07:27:15.516Z,17.2
2023-04-15T07:28:21.580Z,17.2
2023-04-15T07:29:27.568Z,17.2
2023-04-15T07:30:33.754Z,17.2
2023-04-15T07:31:39.786Z,17.2
2023-04-15T07:32:46.019Z,17.2
2023-04-15T07:33:51.071Z,17.2
2023-04-15T07:34:56.336Z,17.2
2023-04-15T07:36:01.305Z,17.2
2023-04-15T07:37:06.611Z,17.2
2023-04-15T07:38:12.734Z,17.2
2023-04-15T07:39:17.791Z,17.2
2023-04-15T07:40:22.965Z,17.2
2023-04-15T07:41:28.931Z,17.2
2023-04-15T07:42:35.040Z,17.2
2023-04-15T07:43:41.330Z,17.2
2023-04-15T07:44:47.291Z,17.2
2023-04-15T07:45:53.534Z,17.2
2023-04-15T07:46:59.587Z,17.2
2023-04-15T07:48:05.706Z,17.2
2023-04-15T07:49:11.798Z,17.2
2023-04-15T07:50:17.942Z,17.2
2023-04-15T07:51:24.102Z,17.2
2023-04-15T07:52:30.136Z,17.2
2023-04-15T07:53:36.182Z,17.2
2023-04-15T07:54:41.429Z,17.2
2023-04-15T07:55:47.476Z,17.2
2023-04-15T07:56:53.552Z,17.2
2023-04-15T07:57:59.648Z,17.2
2023-04-15T07:59:05.772Z,17.2
2023-04-15T08:00:11.985Z,17.2
2023-04-15T08:01:18.156Z,17.2
2023-04-15T08:02:23.295Z,17.2
2023-04-15T08:03:28.260Z,17.2
2023-04-15T08:04:34.386Z,17.2
2023-04-15T08:05:39.730Z,17.2
2023-04-15T08:06:44.765Z,17.2
2023-04-15T08:07:50.779Z,17.2
2023-04-15T08:08:57.026Z,17.1
2023-04-15T08:10:02.978Z,17.2
2023-04-15T08:11:09.109Z,17.2
2023-04-15T08:12:15.267Z,17.1
2023-04-15T08:13:21.471Z,17.2
2023-04-15T08:14:26.472Z,17.2
2023-04-15T08:15:32.587Z,17.2
2023-04-15T08:16:38.758Z,17.2
2023-04-15T08:17:44.804Z,17.1
2023-04-15T08:18:50.951Z,17.1
2023-04-15T08:19:57.179Z,17.1
2023-04-15T08:21:03.256Z,17.1
2023-04-15T08:22:09.323Z,17.2
2023-04-15T08:23:15.596Z,17.2
2023-04-15T08:24:21.672Z,17.1
2023-04-15T08:25:27.678Z,17.2
2023-04-15T08:26:33.837Z,17.1
2023-04-15T08:27:39.887Z,17.1
2023-04-15T08:28:44.960Z,17.1
2023-04-15T08:29:50.251Z,17.1
2023-04-15T08:30:56.238Z,17.1
2023-04-15T08:32:01.333Z,17.1
2023-04-15T08:33:06.474Z,17.2
2023-04-15T08:34:12.598Z,17.1
2023-04-15T08:35:18.853Z,17.1
2023-04-15T08:36:24.804Z,17.1
2023-04-15T08:37:30.917Z,17.1
2023-04-15T08:38:37.040Z,17.1
2023-04-15T08:39:43.248Z,17.1
2023-04-15T08:40:49.333Z,17.1
2023-04-15T08:41:55.542Z,17.1
2023-04-15T08:43:01.675Z,17.1
2023-04-15T08:44:07.704Z,17.1
2023-04-15T08:45:13.738Z,17.1
2023-04-15T08:46:19.834Z,17.1
2023-04-15T08:47:24.958Z,17.1
2023-04-15T08:48:31.129Z,17.1
2023-04-15T08:49:37.362Z,17.1
2023-04-15T08:50:43.307Z,17.1
2023-04-15T08:51:49.408Z,17.1
2023-04-15T08:52:55.585Z,17.1
2023-04-15T08:54:01.712Z,17.1
2023-04-15T08:55:06.852Z,17.1
2023-04-15T08:56:11.914Z,17.1
2023-04-15T08:57:18.032Z,17.1
2023-04-15T08:58:23.235Z,17.1
2023-04-15T08:59:28.466Z,17.1
2023-04-15T09:00:34.610Z,17.1
2023-04-15T09:01:40.624Z,17.1
2023-04-15T09:02:46.739Z,17.1
2023-04-15T09:03:52.906Z,17.1
2023-04-15T09:04:58.974Z,17.1
2023-04-15T09:06:05.049Z,17.1
2023-04-15T09:07:11.140Z,17.1
2023-04-15T09:08:17.305Z,17.1
2023-04-15T09:09:23.318Z,17.1
2023-04-15T09:10:29.472Z,17.1
2023-04-15T09:11:35.678Z,17.1
2023-04-15T09:12:41.657Z,17.1
2023-04-15T09:13:46.836Z,17.1
2023-04-15T09:14:53.029Z,17.1
2023-04-15T09:15:59.088Z,17.1
2023-04-15T09:17:05.167Z,17.1
2023-04-15T09:18:11.286Z,17.1
2023-04-15T09:19:17.356Z,17.1
2023-04-15T09:20:23.471Z,17.1
2023-04-15T09:21:28.665Z,17.1
2023-04-15T09:22:33.803Z,17.1
2023-04-15T09:23:40.020Z,17.1
2023-04-15T09:24:46.055Z,17.1
2023-04-15T09:25:51.218Z,17.1
2023-04-15T09:26:56.224Z,17.1
2023-04-15T09:28:02.480Z,17.1
2023-04-15T09:29:08.457Z,17.1
2023-04-15T09:30:14.713Z,17.1
2023-04-15T09:31:20.683Z,17.1
2023-04-15T09:32:26.793Z,17.1
2023-04-15T09:33:32.910Z,17.1
2023-04-15T09:34:39.084Z,17.1
2023-04-15T09:35:45.233Z,17.1
2023-04-15T09:36:51.294Z,17.1
2023-04-15T09:37:57.456Z,17.1
2023-04-15T09:39:03.672Z,17.1
2023-04-15T09:40:09.588Z,17.1
2023-04-15T09:41:14.858Z,17.1
2023-04-15T09:42:20.865Z,17.1
2023-04-15T09:43:27.093Z,17.1
2023-04-15T09:44:33.228Z,17.1
2023-04-15T09:45:39.205Z,17.1
2023-04-15T09:46:45.299Z,17.1
2023-04-15T09:47:51.604Z,17.1
2023-04-15T09:48:56.625Z,17.1
2023-04-15T09:50:01.728Z,17.1
2023-04-15T09:51:06.903Z,17.1
2023-04-15T09:52:11.934Z,17.1
2023-04-15T09:53:18.118Z,17.1
2023-04-15T09:54:24.161Z,17
2023-04-15T09:55:30.439Z,17.1
2023-04-15T09:56:36.491Z,17.1
2023-04-15T09:57:42.645Z,17.1
2023-04-15T09:58:48.641Z,17.1
2023-04-15T09:59:54.866Z,17.1
2023-04-15T10:01:00.854Z,17.1
2023-04-15T10:02:06.998Z,17
2023-04-15T10:03:13.137Z,17.1
2023-04-15T10:04:19.258Z,17.1
2023-04-15T10:05:25.499Z,17.1
2023-04-15T10:06:30.535Z,17.1
2023-04-15T10:07:36.628Z,17.1
2023-04-15T10:08:42.721Z,17.1
2023-04-15T10:09:48.849Z,17.1
2023-04-15T10:10:54.955Z,17.1
2023-04-15T10:12:01.167Z,17.1
2023-04-15T10:13:07.109Z,17
2023-04-15T10:14:12.408Z,17.1
2023-04-15T10:15:17.491Z,17
2023-04-15T10:16:23.560Z,17
2023-04-15T10:17:28.636Z,17
2023-04-15T10:18:33.764Z,17
2023-04-15T10:19:39.954Z,17
2023-04-15T10:20:45.976Z,17
2023-04-15T10:21:52.132Z,17
2023-04-15T10:22:58.246Z,17
2023-04-15T10:24:04.324Z,17
2023-04-15T10:25:10.637Z,17
2023-04-15T10:26:16.714Z,17
2023-04-15T10:27:22.677Z,17
2023-04-15T10:28:28.785Z,17
2023-04-15T10:29:34.901Z,17
2023-04-15T10:30:41.005Z,17
2023-04-15T10:31:47.118Z,17
2023-04-15T10:32:52.297Z,17
2023-04-15T10:33:58.539Z,17
2023-04-15T10:35:04.474Z,17
2023-04-15T10:36:10.589Z,17
2023-04-15T10:37:16.697Z,17
2023-04-15T10:38:22.815Z,17
2023-04-15T10:39:28.927Z,17
2023-04-15T10:40:34.163Z,17
2023-04-15T10:41:39.280Z,17
2023-04-15T10:42:45.334Z,17
2023-04-15T10:43:50.598Z,17
2023-04-15T10:44:55.743Z,17
2023-04-15T10:46:01.888Z,17
2023-04-15T10:47:07.829Z,17
2023-04-15T10:48:13.947Z,17
2023-04-15T10:49:20.072Z,17
2023-04-15T10:50:26.238Z,17
2023-04-15T10:51:32.260Z,17
2023-04-15T10:52:38.384Z,17
2023-04-15T10:53:44.506Z,17
2023-04-15T10:54:50.605Z,17
2023-04-15T10:55:56.714Z,17
2023-04-15T10:57:02.940Z,17
2023-04-15T10:58:08.973Z,17
2023-04-15T10:59:14.100Z,17
2023-04-15T11:00:20.236Z,17
2023-04-15T11:01:26.288Z,17
2023-04-15T11:02:32.412Z,17
2023-04-15T11:03:38.524Z,17
2023-04-15T11:04:44.699Z,17
2023-04-15T11:05:50.767Z,17
2023-04-15T11:06:55.881Z,17
2023-04-15T11:08:01.112Z,17
2023-04-15T11:09:07.125Z,17
2023-04-15T11:10:12.259Z,17
2023-04-15T11:11:17.395Z,17
2023-04-15T11:12:23.511Z,17
2023-04-15T11:13:29.723Z,17
2023-04-15T11:14:35.738Z,17
2023-04-15T11:15:42.044Z,17
2023-04-15T11:16:47.976Z,17
2023-04-15T11:17:54.104Z,17
2023-04-15T11:19:00.213Z,17
2023-04-15T11:20:06.316Z,17
2023-04-15T11:21:12.468Z,17
2023-04-15T11:22:18.531Z,17
2023-04-15T11:23:24.694Z,17
2023-04-15T11:24:30.758Z,17
2023-04-15T11:25:35.888Z,17
2023-04-15T11:26:42.016Z,17
2023-04-15T11:27:48.278Z,17
2023-04-15T11:28:54.405Z,17
2023-04-15T11:30:00.654Z,17
2023-04-15T11:31:06.516Z,17
2023-04-15T11:32:12.687Z,17
2023-04-15T11:33:17.867Z,17
2023-04-15T11:35:28.952Z,17
2023-04-15T11:36:35.069Z,17
2023-04-15T11:37:40.203Z,17
2023-04-15T11:38:45.338Z,17
2023-04-15T11:39:51.457Z,17
2023-04-15T11:40:57.551Z,17
2023-04-15T11:42:03.671Z,17
2023-04-15T11:43:09.780Z,17
2023-04-15T11:44:15.897Z,17
2023-04-15T11:45:22.016Z,17
2023-04-15T11:46:28.130Z,17
2023-04-15T11:47:34.239Z,17
2023-04-15T11:48:40.352Z,17
2023-04-15T11:49:46.479Z,17
2023-04-15T11:50:52.589Z,17
2023-04-15T11:51:58.703Z,17
2023-04-15T11:53:03.840Z,17
2023-04-15T11:54:09.931Z,17
2023-04-15T11:55:15.074Z,17
2023-04-15T11:56:21.190Z,17
2023-04-15T11:57:27.299Z,17
2023-04-15T11:58:33.415Z,17
2023-04-15T11:59:39.526Z,17
2023-04-15T12:00:44.665Z,17
2023-04-15T12:01:49.792Z,17
2023-04-15T12:02:54.936Z,17
2023-04-15T12:04:00.051Z,17
2023-04-15T12:05:06.173Z,17
2023-04-15T12:06:12.287Z,17
2023-04-15T12:07:18.402Z,17
2023-04-15T12:08:24.512Z,17
2023-04-15T12:09:30.627Z,17
2023-04-15T12:10:36.734Z,17
2023-04-15T12:11:42.851Z,16.9
2023-04-15T12:12:48.970Z,17
2023-04-15T12:13:55.127Z,16.9
2023-04-15T12:15:01.189Z,17
2023-04-15T12:16:07.306Z,17
2023-04-15T12:17:13.419Z,17
2023-04-15T12:18:18.555Z,17
2023-04-15T12:19:24.663Z,17
2023-04-15T12:20:30.789Z,17
2023-04-15T12:21:36.916Z,16.9
2023-04-15T12:22:43.012Z,16.9
2023-04-15T12:23:49.115Z,16.9
2023-04-15T12:24:55.246Z,17
2023-04-15T12:26:00.393Z,16.9
2023-04-15T12:27:05.515Z,16.9
2023-04-15T12:28:11.624Z,17
2023-04-15T12:29:16.760Z,16.9
2023-04-15T12:30:21.890Z,16.9
2023-04-15T12:31:28.025Z,16.9
2023-04-15T12:32:34.111Z,16.9
2023-04-15T12:33:40.229Z,16.9
2023-04-15T12:34:46.339Z,16.9
2023-04-15T12:35:52.454Z,16.9
2023-04-15T12:36:58.567Z,16.9
2023-04-15T12:38:04.681Z,16.9
2023-04-15T12:39:10.798Z,16.9
2023-04-15T12:40:16.911Z,17
2023-04-15T12:41:23.022Z,17
2023-04-15T12:42:29.145Z,16.9
2023-04-15T12:43:35.277Z,16.9
2023-04-15T12:44:40.374Z,16.9
2023-04-15T12:45:46.490Z,16.9
2023-04-15T12:46:52.609Z,16.9
2023-04-15T12:47:58.714Z,16.9
2023-04-15T12:49:04.846Z,16.9
2023-04-15T12:50:10.954Z,17
2023-04-15T12:51:17.058Z,16.9
2023-04-15T12:52:22.202Z,16.9
2023-04-15T12:53:27.329Z,16.9
2023-04-15T12:54:33.442Z,16.9
2023-04-15T12:55:38.572Z,16.9
2023-04-15T12:56:43.718Z,16.9
2023-04-15T12:57:49.831Z,16.9
2023-04-15T12:58:55.931Z,16.9
2023-04-15T13:00:02.061Z,16.9
2023-04-15T13:01:08.161Z,16.9
2023-04-15T13:02:14.268Z,16.9
2023-04-15T13:03:20.395Z,16.9
2023-04-15T13:04:26.497Z,16.9
2023-04-15T13:05:32.618Z,16.9
2023-04-15T13:06:38.732Z,16.9
2023-04-15T13:07:44.843Z,16.9
2023-04-15T13:08:50.964Z,16.9
2023-04-15T13:09:57.074Z,16.9
2023-04-15T13:11:02.207Z,16.9
2023-04-15T13:12:08.322Z,16.9
2023-04-15T13:13:14.433Z,16.9
2023-04-15T13:14:20.544Z,16.9
2023-04-15T13:15:26.651Z,16.9
2023-04-15T13:16:32.766Z,16.9
2023-04-15T13:17:38.887Z,16.9
2023-04-15T13:18:44.020Z,16.9
2023-04-15T13:19:49.164Z,16.9
2023-04-15T13:20:55.269Z,16.9
2023-04-15T13:22:00.443Z,16.9
2023-04-15T13:23:05.526Z,16.9
2023-04-15T13:24:11.653Z,16.9
2023-04-15T13:25:17.757Z,16.9
2023-04-15T13:26:23.868Z,16.9
2023-04-15T13:27:29.986Z,16.9
2023-04-15T13:28:36.106Z,16.9
2023-04-15T13:29:42.211Z,16.9
2023-04-15T13:30:48.322Z,16.9
2023-04-15T13:31:54.444Z,16.9
2023-04-15T13:33:00.558Z,16.9
2023-04-15T13:34:06.677Z,16.9
2023-04-15T13:35:12.785Z,16.9
2023-04-15T13:36:18.905Z,16.9
2023-04-15T13:37:24.028Z,16.9
2023-04-15T13:38:30.147Z,16.9
2023-04-15T13:39:36.255Z,16.9
2023-04-15T13:40:42.362Z,16.9
2023-04-15T13:41:48.487Z,16.9
2023-04-15T13:42:54.602Z,16.9
2023-04-15T13:44:00.701Z,16.9
2023-04-15T13:45:05.850Z,16.9
2023-04-15T13:46:10.970Z,16.9
2023-04-15T13:47:17.084Z,16.9
2023-04-15T13:48:23.210Z,16.9
2023-04-15T13:49:28.338Z,16.9
2023-04-15T13:50:33.467Z,16.9
2023-04-15T13:51:39.578Z,16.9
2023-04-15T13:52:45.706Z,16.9
2023-04-15T13:53:51.803Z,16.9
2023-04-15T13:54:57.927Z,16.9
2023-04-15T13:56:04.035Z,16.9
2023-04-15T13:57:10.143Z,16.9
2023-04-15T13:58:16.261Z,16.9
2023-04-15T13:59:22.393Z,16.9
2023-04-15T14:00:28.488Z,16.9
2023-04-15T14:01:34.601Z,16.9
2023-04-15T14:02:40.743Z,16.9
2023-04-15T14:03:46.840Z,16.9
2023-04-15T14:04:52.946Z,16.9
2023-04-15T14:05:58.079Z,16.9
2023-04-15T14:07:04.196Z,16.9
2023-04-15T14:08:10.310Z,16.9
2023-04-15T14:09:16.436Z,16.9
2023-04-15T14:10:22.531Z,16.9
2023-04-15T14:11:28.633Z,16.9
2023-04-15T14:12:33.778Z,16.9
2023-04-15T14:13:38.904Z,16.9
2023-04-15T14:14:45.018Z,16.9
2023-04-15T14:15:51.147Z,16.9
2023-04-15T14:16:57.249Z,16.9
2023-04-15T14:18:03.361Z,16.9
2023-04-15T14:19:09.478Z,16.9
2023-04-15T14:20:15.591Z,16.9
2023-04-15T14:21:21.703Z,16.9
2023-04-15T14:22:27.831Z,16.9
2023-04-15T14:23:33.924Z,16.9
2023-04-15T14:24:40.048Z,16.9
2023-04-15T14:25:46.160Z,16.9
2023-04-15T14:26:52.266Z,16.9
2023-04-15T14:27:57.400Z,16.9
2023-04-15T14:29:03.517Z,16.9
2023-04-15T14:30:09.634Z,16.9
2023-04-15T14:31:15.736Z,16.9
2023-04-15T14:32:21.863Z,16.9
2023-04-15T14:33:27.963Z,16.9
2023-04-15T14:34:34.083Z,16.9
2023-04-15T14:35:39.247Z,16.9
2023-04-15T14:36:44.345Z,16.9
2023-04-15T14:37:49.495Z,16.9
2023-04-15T14:38:54.615Z,16.9
2023-04-15T14:40:00.737Z,16.9
2023-04-15T14:41:06.109Z,16.9
2023-04-15T14:42:11.158Z,16.9
2023-04-15T14:43:17.301Z,16.9
2023-04-15T14:44:23.393Z,16.9
2023-04-15T14:45:29.463Z,16.9
2023-04-15T14:46:35.636Z,16.9
2023-04-15T14:47:41.554Z,16.9
2023-04-15T14:48:47.677Z,16.9
2023-04-15T14:49:53.795Z,16.9
2023-04-15T14:50:59.902Z,16.9